Time;durP1;ratioP1;P1;durP2;ratioP2;P2;SDS_P1;SDS_P2;PMS_P1;PMS_P2;Temp;Humidity;BMP_temperature;BMP_pressure;BME280_temperature;BME280_humidity;BME280_pressure;Samples;Min_cycle;Max_cycle;Signal;HPM_P1;HPM_P2
2021/06/25 00:01:47;;;;;;;8.40;7.60;;;;;;;;;;5000989;28;20248;-78
2021/06/25 00:04:13;;;;;;;8.75;7.93;;;;;;;;;;5016025;28;20223;-76
2021/06/25 00:06:39;;;;;;;9.90;7.95;;;;;;;;;;5004582;28;20193;-77
2021/06/25 00:09:05;;;;;;;9.70;8.70;;;;;;;;;;5018973;28;20268;-77
2021/06/25 00:11:31;;;;;;;9.40;8.50;;;;;;;;;;5017228;28;20467;-77
2021/06/25 00:13:57;;;;;;;9.55;8.10;;;;;;;;;;5006566;28;20697;-78
2021/06/25 00:16:23;;;;;;;10.20;8.35;;;;;;;;;;5001253;28;20219;-78
2021/06/25 00:18:49;;;;;;;10.00;8.13;;;;;;;;;;5003135;28;20219;-78
2021/06/25 00:21:15;;;;;;;8.75;7.78;;;;;;;;;;5002420;28;20282;-78
2021/06/25 00:23:41;;;;;;;9.85;7.90;;;;;;;;;;5018063;28;20318;-78
2021/06/25 00:26:07;;;;;;;10.85;9.38;;;;;;;;;;5021051;28;20265;-78
2021/06/25 00:28:33;;;;;;;9.70;8.47;;;;;;;;;;5002546;28;20253;-78
2021/06/25 00:30:59;;;;;;;10.00;8.80;;;;;;;;;;5018191;28;20456;-78
2021/06/25 00:33:25;;;;;;;9.43;7.50;;;;;;;;;;5015223;28;20445;-78
2021/06/25 00:35:51;;;;;;;8.57;7.53;;;;;;;;;;5016834;28;20449;-77
2021/06/25 00:38:17;;;;;;;10.20;8.87;;;;;;;;;;5004647;28;20203;-77
2021/06/25 00:40:43;;;;;;;13.68;8.60;;;;;;;;;;5003071;28;20761;-77
2021/06/25 00:43:09;;;;;;;8.90;8.00;;;;;;;;;;5000953;28;20212;-78
2021/06/25 00:45:35;;;;;;;13.13;7.60;;;;;;;;;;5001923;28;20207;-78
2021/06/25 00:48:01;;;;;;;11.23;8.77;;;;;;;;;;5001575;28;20270;-77
2021/06/25 00:50:29;;;;;;;9.63;8.48;;;;;;;;;;5003315;28;20695;-78
2021/06/25 00:52:56;;;;;;;9.18;8.18;;;;;;;;;;5004487;28;20198;-78
2021/06/25 00:55:23;;;;;;;11.00;8.63;;;;;;;;;;5000721;28;20192;-77
2021/06/25 00:57:50;;;;;;;13.05;8.43;;;;;;;;;;5017078;28;20298;-77
2021/06/25 01:00:16;;;;;;;10.23;8.77;;;;;;;;;;5002624;28;20183;-77
2021/06/25 01:02:43;;;;;;;11.15;8.10;;;;;;;;;;5017313;28;20560;-77
2021/06/25 01:05:09;;;;;;;9.30;7.70;;;;;;;;;;5004674;28;20187;-78
2021/06/25 01:07:35;;;;;;;13.80;8.95;;;;;;;;;;5003777;28;20202;-78
2021/06/25 01:10:03;;;;;;;10.85;8.43;;;;;;;;;;5000915;28;20404;-77
2021/06/25 01:12:29;;;;;;;13.73;10.00;;;;;;;;;;5016881;28;20202;-77
2021/06/25 01:14:55;;;;;;;14.52;9.13;;;;;;;;;;5017341;28;20230;-77
2021/06/25 01:17:29;;;;;;;9.93;8.80;;;;;;;;;;5001605;28;20183;-78
2021/06/25 01:19:55;;;;;;;9.80;8.68;;;;;;;;;;5003619;28;20437;-78
2021/06/25 01:22:25;;;;;;;11.52;8.95;;;;;;;;;;5001503;28;20190;-78
2021/06/25 01:24:51;;;;;;;9.48;8.57;;;;;;;;;;5001749;28;20425;-78
2021/06/25 01:27:17;;;;;;;11.50;8.97;;;;;;;;;;5014924;28;20183;-78
2021/06/25 01:29:43;;;;;;;9.35;8.07;;;;;;;;;;5016160;28;20506;-78
2021/06/25 01:32:09;;;;;;;10.17;9.07;;;;;;;;;;5019136;28;20719;-78
2021/06/25 01:34:35;;;;;;;10.90;8.70;;;;;;;;;;5001076;28;20430;-77
2021/06/25 01:37:01;;;;;;;11.18;9.93;;;;;;;;;;5000840;28;20446;-78
2021/06/25 01:39:28;;;;;;;11.55;9.15;;;;;;;;;;5013609;28;20235;-78
2021/06/25 01:41:54;;;;;;;8.85;8.05;;;;;;;;;;4999198;28;20214;-78
2021/06/25 01:44:21;;;;;;;11.93;9.32;;;;;;;;;;5018238;28;20206;-78
2021/06/25 01:46:47;;;;;;;12.90;9.60;;;;;;;;;;5001990;28;20176;-78
2021/06/25 01:49:13;;;;;;;11.95;8.90;;;;;;;;;;4999908;28;20186;-77
2021/06/25 01:51:39;;;;;;;10.32;9.23;;;;;;;;;;5016219;28;20205;-77
2021/06/25 01:54:05;;;;;;;11.63;9.03;;;;;;;;;;4999276;28;20258;-77
2021/06/25 01:56:31;;;;;;;14.40;9.67;;;;;;;;;;5017257;28;20438;-78
2021/06/25 01:58:57;;;;;;;11.45;10.00;;;;;;;;;;5002902;28;20473;-77
2021/06/25 02:01:23;;;;;;;10.75;9.63;;;;;;;;;;5015919;28;20187;-77
2021/06/25 02:03:49;;;;;;;13.73;10.07;;;;;;;;;;4999793;28;20181;-77
2021/06/25 02:06:15;;;;;;;13.63;10.10;;;;;;;;;;5000814;28;20442;-77
2021/06/25 02:08:42;;;;;;;10.70;9.60;;;;;;;;;;4997601;28;20570;-77
2021/06/25 02:11:08;;;;;;;10.75;9.65;;;;;;;;;;5015539;28;20191;-78
2021/06/25 02:13:35;;;;;;;11.02;9.90;;;;;;;;;;5002052;28;20206;-78
2021/06/25 02:16:01;;;;;;;11.43;9.85;;;;;;;;;;4999501;28;20249;-78
2021/06/25 02:18:27;;;;;;;12.15;9.70;;;;;;;;;;5014422;28;20676;-78
2021/06/25 02:20:52;;;;;;;11.43;9.80;;;;;;;;;;5013318;28;20218;-77
2021/06/25 02:23:18;;;;;;;11.40;9.70;;;;;;;;;;5016988;28;20175;-78
2021/06/25 02:25:45;;;;;;;9.60;8.65;;;;;;;;;;5001443;28;20428;-78
2021/06/25 02:28:11;;;;;;;11.52;9.93;;;;;;;;;;5001350;28;20191;-78
2021/06/25 02:30:37;;;;;;;10.80;9.70;;;;;;;;;;5000896;28;20246;-78
2021/06/25 02:33:03;;;;;;;11.80;9.05;;;;;;;;;;5015575;28;20602;-77
2021/06/25 02:35:29;;;;;;;13.05;8.80;;;;;;;;;;5015952;28;20202;-77
2021/06/25 02:37:56;;;;;;;11.48;9.23;;;;;;;;;;5003464;28;20195;-77
2021/06/25 02:40:22;;;;;;;11.95;10.18;;;;;;;;;;4999427;28;20183;-78
2021/06/25 02:42:48;;;;;;;13.38;9.70;;;;;;;;;;4999100;28;20212;-77
2021/06/25 02:45:15;;;;;;;11.90;9.73;;;;;;;;;;5014474;28;20191;-78
2021/06/25 02:47:41;;;;;;;11.73;10.52;;;;;;;;;;4996700;28;20471;-78
2021/06/25 02:50:08;;;;;;;12.40;9.63;;;;;;;;;;5018378;28;20180;-78
2021/06/25 02:52:35;;;;;;;10.88;9.73;;;;;;;;;;5001185;28;20178;-78
2021/06/25 02:55:01;;;;;;;11.07;9.88;;;;;;;;;;4999994;28;20186;-78
2021/06/25 02:57:27;;;;;;;11.63;10.07;;;;;;;;;;5015102;28;20198;-77
2021/06/25 02:59:53;;;;;;;13.48;9.95;;;;;;;;;;5004562;28;20180;-77
2021/06/25 03:02:19;;;;;;;12.73;11.20;;;;;;;;;;5006372;28;20186;-77
2021/06/25 03:04:45;;;;;;;9.77;8.77;;;;;;;;;;5005251;28;20194;-77
2021/06/25 03:07:11;;;;;;;10.90;9.30;;;;;;;;;;5002968;28;20182;-77
2021/06/25 03:09:38;;;;;;;12.37;8.90;;;;;;;;;;5004541;28;20187;-77
2021/06/25 03:12:04;;;;;;;13.43;10.57;;;;;;;;;;5019237;28;20450;-77
2021/06/25 03:14:30;;;;;;;10.35;9.10;;;;;;;;;;5019505;28;20523;-77
2021/06/25 03:16:56;;;;;;;11.90;10.70;;;;;;;;;;5007826;28;20197;-78
2021/06/25 03:19:22;;;;;;;11.80;10.57;;;;;;;;;;5002503;28;20238;-77
2021/06/25 03:21:48;;;;;;;11.63;10.18;;;;;;;;;;5002911;28;20204;-77
2021/06/25 03:24:14;;;;;;;11.20;9.33;;;;;;;;;;5003990;28;20175;-77
2021/06/25 03:26:40;;;;;;;23.90;11.57;;;;;;;;;;5004519;28;20829;-77
2021/06/25 03:29:06;;;;;;;9.45;8.43;;;;;;;;;;5022072;28;20427;-77
2021/06/25 03:31:32;;;;;;;12.30;10.93;;;;;;;;;;5003456;28;20672;-77
2021/06/25 03:33:58;;;;;;;12.95;11.40;;;;;;;;;;5003606;28;20255;-77
2021/06/25 03:36:25;;;;;;;12.88;10.80;;;;;;;;;;5003348;28;20192;-77
2021/06/25 03:38:51;;;;;;;15.10;10.82;;;;;;;;;;5004400;28;20211;-77
2021/06/25 03:41:17;;;;;;;11.57;10.32;;;;;;;;;;5021309;28;20193;-77
2021/06/25 03:43:43;;;;;;;13.33;10.53;;;;;;;;;;5000417;28;20168;-77
2021/06/25 03:46:09;;;;;;;14.18;11.02;;;;;;;;;;5000966;28;20517;-77
2021/06/25 03:48:35;;;;;;;12.70;10.23;;;;;;;;;;5018495;28;20179;-77
2021/06/25 03:51:01;;;;;;;11.50;10.30;;;;;;;;;;5002411;28;20189;-78
2021/06/25 03:53:27;;;;;;;12.82;10.48;;;;;;;;;;5005369;28;20176;-77
2021/06/25 03:56:12;;;;;;;12.10;10.57;;;;;;;;;;5005713;28;20186;-77
2021/06/25 03:58:48;;;;;;;12.70;9.95;;;;;;;;;;5003237;28;20469;-78
2021/06/25 04:01:15;;;;;;;12.20;10.50;;;;;;;;;;5001690;28;20251;-78
2021/06/25 04:03:41;;;;;;;13.75;11.75;;;;;;;;;;5003781;28;20180;-78
2021/06/25 04:06:07;;;;;;;14.33;11.33;;;;;;;;;;5002297;28;20193;-78
2021/06/25 04:08:34;;;;;;;13.07;10.25;;;;;;;;;;5018754;28;20442;-77
2021/06/25 04:11:01;;;;;;;12.00;10.13;;;;;;;;;;5001572;28;20675;-77
2021/06/25 04:13:28;;;;;;;12.15;9.60;;;;;;;;;;5003814;28;20213;-77
2021/06/25 04:15:54;;;;;;;15.88;11.80;;;;;;;;;;5019729;28;20242;-77
2021/06/25 04:18:20;;;;;;;12.68;10.13;;;;;;;;;;5018179;28;20195;-78
2021/06/25 04:20:46;;;;;;;12.75;10.15;;;;;;;;;;5017957;28;20199;-77
2021/06/25 04:23:13;;;;;;;12.85;10.60;;;;;;;;;;5005397;28;20259;-78
2021/06/25 04:25:39;;;;;;;13.52;11.27;;;;;;;;;;5004247;28;20194;-77
2021/06/25 04:28:05;;;;;;;12.80;11.05;;;;;;;;;;5003439;28;20282;-77
2021/06/25 04:30:32;;;;;;;15.50;10.05;;;;;;;;;;5002930;28;20308;-77
2021/06/25 04:33:00;;;;;;;13.07;10.35;;;;;;;;;;5004569;28;20653;-77
2021/06/25 04:35:27;;;;;;;13.05;11.68;;;;;;;;;;5018279;28;20223;-77
2021/06/25 04:37:53;;;;;;;10.88;9.80;;;;;;;;;;5005716;28;20263;-77
2021/06/25 04:40:18;;;;;;;12.00;10.43;;;;;;;;;;5001639;28;20195;-77
2021/06/25 04:42:45;;;;;;;13.93;11.10;;;;;;;;;;5002789;28;20197;-77
2021/06/25 04:45:11;;;;;;;14.13;10.88;;;;;;;;;;5000706;28;20428;-77
2021/06/25 04:47:39;;;;;;;12.27;10.95;;;;;;;;;;5017337;28;20187;-77
2021/06/25 04:50:06;;;;;;;13.10;10.70;;;;;;;;;;5005493;28;20195;-77
2021/06/25 04:52:31;;;;;;;11.20;9.93;;;;;;;;;;5002254;28;20179;-77
2021/06/25 04:54:58;;;;;;;13.27;10.70;;;;;;;;;;5018317;28;20187;-77
2021/06/25 04:57:24;;;;;;;12.82;11.40;;;;;;;;;;5001441;28;20467;-77
2021/06/25 04:59:50;;;;;;;16.58;10.88;;;;;;;;;;5004759;28;20202;-77
2021/06/25 05:02:16;;;;;;;12.57;11.27;;;;;;;;;;5019916;28;20171;-77
2021/06/25 05:04:41;;;;;;;12.80;10.70;;;;;;;;;;4997282;28;20460;-77
2021/06/25 05:07:07;;;;;;;13.80;10.40;;;;;;;;;;5000908;28;20800;-77
2021/06/25 05:09:33;;;;;;;13.43;10.53;;;;;;;;;;5002274;28;20471;-77
2021/06/25 05:11:59;;;;;;;11.90;10.70;;;;;;;;;;5017198;28;20476;-77
2021/06/25 05:14:25;;;;;;;14.47;11.07;;;;;;;;;;4999175;28;20185;-77
2021/06/25 05:16:51;;;;;;;13.48;10.65;;;;;;;;;;5002610;28;20511;-77
2021/06/25 05:19:17;;;;;;;13.37;10.37;;;;;;;;;;5016389;28;20672;-77
2021/06/25 05:21:43;;;;;;;17.13;11.40;;;;;;;;;;5001589;28;20442;-77
2021/06/25 05:24:09;;;;;;;11.80;10.13;;;;;;;;;;5000301;28;20442;-76
2021/06/25 05:26:35;;;;;;;12.48;10.52;;;;;;;;;;4997093;28;20187;-77
2021/06/25 05:29:02;;;;;;;12.88;10.25;;;;;;;;;;5005638;28;20208;-77
2021/06/25 05:31:28;;;;;;;16.90;10.20;;;;;;;;;;5001835;28;20301;-77
2021/06/25 05:33:54;;;;;;;11.68;10.13;;;;;;;;;;5003229;28;20206;-77
2021/06/25 05:36:20;;;;;;;11.30;10.05;;;;;;;;;;5003039;28;20277;-77
2021/06/25 05:38:46;;;;;;;12.43;10.20;;;;;;;;;;5016854;28;20223;-77
2021/06/25 05:41:12;;;;;;;11.85;10.07;;;;;;;;;;5018925;28;20190;-77
2021/06/25 05:43:38;;;;;;;11.90;10.43;;;;;;;;;;5001255;28;20179;-77
2021/06/25 05:46:04;;;;;;;14.20;10.73;;;;;;;;;;5000530;28;20246;-77
2021/06/25 05:48:31;;;;;;;12.05;10.50;;;;;;;;;;5000484;28;20186;-77
2021/06/25 05:50:56;;;;;;;12.40;10.82;;;;;;;;;;5001314;28;20192;-77
2021/06/25 05:53:22;;;;;;;10.90;9.40;;;;;;;;;;5017753;28;20191;-77
2021/06/25 05:55:48;;;;;;;12.40;10.57;;;;;;;;;;5002236;28;20484;-77
2021/06/25 05:58:14;;;;;;;11.55;9.82;;;;;;;;;;5016050;28;20461;-77
2021/06/25 06:00:41;;;;;;;11.93;10.20;;;;;;;;;;5000702;28;20664;-77
2021/06/25 06:03:07;;;;;;;11.82;10.63;;;;;;;;;;5000005;28;20448;-77
2021/06/25 06:05:33;;;;;;;14.00;10.20;;;;;;;;;;5012534;28;20241;-77
2021/06/25 06:07:59;;;;;;;11.07;9.98;;;;;;;;;;5005286;28;20422;-77
2021/06/25 06:10:25;;;;;;;10.67;9.57;;;;;;;;;;5000909;28;20187;-77
2021/06/25 06:12:51;;;;;;;13.25;11.15;;;;;;;;;;5002194;28;20788;-77
2021/06/25 06:15:17;;;;;;;13.70;11.23;;;;;;;;;;4999993;28;20219;-77
2021/06/25 06:17:44;;;;;;;11.35;9.82;;;;;;;;;;5000152;28;20183;-77
2021/06/25 06:20:17;;;;;;;10.45;9.35;;;;;;;;;;5017567;28;20237;-77
2021/06/25 06:31:11;;;;;;;11.63;9.60;;;;;;;;;;5000568;28;20197;-77
2021/06/25 06:36:23;;;;;;;12.45;9.35;;;;;;;;;;5002101;28;20278;-77
2021/06/25 06:38:49;;;;;;;11.05;10.05;;;;;;;;;;5015558;28;20207;-77
2021/06/25 06:41:16;;;;;;;12.63;11.00;;;;;;;;;;4999566;28;20207;-78
2021/06/25 06:43:43;;;;;;;12.73;10.73;;;;;;;;;;4999763;28;20171;-77
2021/06/25 06:46:09;;;;;;;13.52;10.90;;;;;;;;;;5000831;28;20222;-77
2021/06/25 06:48:37;;;;;;;12.13;10.70;;;;;;;;;;5017482;28;20543;-77
2021/06/25 06:51:03;;;;;;;14.52;11.57;;;;;;;;;;5000669;28;20191;-78
2021/06/25 06:53:29;;;;;;;12.50;11.20;;;;;;;;;;5014854;28;20187;-78
2021/06/25 06:55:55;;;;;;;14.50;9.30;;;;;;;;;;4999705;28;20206;-77
2021/06/25 06:58:21;;;;;;;17.17;10.45;;;;;;;;;;5011234;28;20466;-76
2021/06/25 07:00:47;;;;;;;14.57;9.50;;;;;;;;;;5014415;28;20245;-77
2021/06/25 07:03:14;;;;;;;12.53;9.93;;;;;;;;;;5001883;28;20445;-76
2021/06/25 07:05:40;;;;;;;19.20;10.43;;;;;;;;;;5000963;28;20476;-76
2021/06/25 07:08:06;;;;;;;13.75;10.05;;;;;;;;;;5018570;28;20174;-76
2021/06/25 07:10:32;;;;;;;11.47;10.10;;;;;;;;;;5001788;28;20234;-76
2021/06/25 07:12:58;;;;;;;14.43;10.73;;;;;;;;;;5016677;28;20453;-76
2021/06/25 07:15:24;;;;;;;11.77;10.30;;;;;;;;;;5000485;28;20218;-76
2021/06/25 07:17:50;;;;;;;10.90;9.67;;;;;;;;;;5000800;28;20202;-76
2021/06/25 07:20:16;;;;;;;11.73;10.52;;;;;;;;;;5001377;28;20430;-76
2021/06/25 07:22:43;;;;;;;11.75;10.20;;;;;;;;;;5001164;28;20220;-76
2021/06/25 07:25:09;;;;;;;13.35;11.30;;;;;;;;;;5016888;28;20175;-76
2021/06/25 07:27:36;;;;;;;13.63;10.65;;;;;;;;;;5014908;28;20175;-77
2021/06/25 07:30:02;;;;;;;11.00;9.90;;;;;;;;;;5000195;28;20224;-76
2021/06/25 07:32:30;;;;;;;13.75;9.88;;;;;;;;;;5001972;28;20184;-77
2021/06/25 07:34:56;;;;;;;12.27;9.98;;;;;;;;;;5002062;28;20597;-78
2021/06/25 07:37:22;;;;;;;10.23;9.23;;;;;;;;;;5014924;28;20210;-76
2021/06/25 07:39:48;;;;;;;15.52;10.70;;;;;;;;;;4998244;28;20496;-77
2021/06/25 07:42:14;;;;;;;12.02;10.82;;;;;;;;;;4999384;28;20190;-77
2021/06/25 07:44:40;;;;;;;10.50;9.50;;;;;;;;;;5018110;28;20187;-77
2021/06/25 07:47:06;;;;;;;15.60;10.25;;;;;;;;;;5021213;28;20244;-77
2021/06/25 07:49:32;;;;;;;11.00;9.60;;;;;;;;;;5004512;28;20270;-77
2021/06/25 07:51:58;;;;;;;10.02;8.80;;;;;;;;;;5020589;28;20198;-77
2021/06/25 07:54:24;;;;;;;10.43;9.27;;;;;;;;;;5000587;28;20191;-77
2021/06/25 07:56:50;;;;;;;10.03;8.90;;;;;;;;;;5000481;28;20847;-77
2021/06/25 07:59:16;;;;;;;9.77;8.40;;;;;;;;;;5020758;28;20461;-76
2021/06/25 08:01:42;;;;;;;10.10;9.13;;;;;;;;;;5005746;28;20430;-77
2021/06/25 08:04:08;;;;;;;9.02;8.13;;;;;;;;;;5020240;28;20429;-77
2021/06/25 08:06:34;;;;;;;9.65;8.38;;;;;;;;;;5018076;28;20183;-77
2021/06/25 08:09:03;;;;;;;8.63;7.70;;;;;;;;;;5018889;28;20225;-77
2021/06/25 08:11:29;;;;;;;11.05;7.25;;;;;;;;;;5001804;28;20412;-77
2021/06/25 08:13:55;;;;;;;8.88;7.07;;;;;;;;;;5004307;28;20215;-81
2021/06/25 08:16:21;;;;;;;8.38;7.47;;;;;;;;;;5002681;28;20278;-77
2021/06/25 08:18:47;;;;;;;7.30;6.40;;;;;;;;;;5003248;28;20234;-77
2021/06/25 08:21:13;;;;;;;8.20;7.47;;;;;;;;;;5008176;28;20443;-77
2021/06/25 08:23:39;;;;;;;9.75;7.30;;;;;;;;;;5002963;28;20494;-78
2021/06/25 08:26:05;;;;;;;8.40;6.57;;;;;;;;;;5021160;28;20183;-78
2021/06/25 08:28:31;;;;;;;10.03;7.17;;;;;;;;;;4999532;28;20445;-77
2021/06/25 08:30:57;;;;;;;8.03;7.20;;;;;;;;;;5018000;28;20936;-77
2021/06/25 08:33:23;;;;;;;7.90;6.73;;;;;;;;;;5002831;28;20420;-78
2021/06/25 08:35:49;;;;;;;9.53;7.97;;;;;;;;;;5017018;28;20459;-77
2021/06/25 08:38:15;;;;;;;8.80;7.32;;;;;;;;;;5018358;28;20445;-77
2021/06/25 08:40:41;;;;;;;8.20;7.40;;;;;;;;;;5004807;28;20188;-78
2021/06/25 08:43:07;;;;;;;8.00;7.20;;;;;;;;;;5016975;28;20927;-75
2021/06/25 08:45:33;;;;;;;7.45;6.75;;;;;;;;;;5000897;28;20183;-76
2021/06/25 08:48:00;;;;;;;5.88;5.35;;;;;;;;;;5000679;28;20195;-76
2021/06/25 08:50:26;;;;;;;6.65;5.93;;;;;;;;;;4997947;28;20195;-76
2021/06/25 08:52:53;;;;;;;6.55;5.40;;;;;;;;;;5003374;28;20195;-77
2021/06/25 08:55:19;;;;;;;4.30;3.90;;;;;;;;;;4998634;28;20290;-76
2021/06/25 08:57:46;;;;;;;4.25;3.95;;;;;;;;;;5002863;28;20658;-77
2021/06/25 09:00:13;;;;;;;3.95;3.65;;;;;;;;;;5017574;28;20188;-77
2021/06/25 09:02:39;;;;;;;4.22;3.92;;;;;;;;;;5015928;28;20178;-76
2021/06/25 09:05:06;;;;;;;5.18;4.68;;;;;;;;;;5014340;28;20711;-78
2021/06/25 09:07:45;;;;;;;3.88;3.58;;;;;;;;;;4999436;28;20453;-78
2021/06/25 09:10:12;;;;;;;4.15;2.72;;;;;;;;;;5001399;28;20188;-77
2021/06/25 09:12:38;;;;;;;3.05;2.80;;;;;;;;;;5002563;28;20196;-77
2021/06/25 09:15:06;;;;;;;2.92;2.72;;;;;;;;;;5016707;28;20216;-78
2021/06/25 09:17:52;;;;;;;3.35;3.05;;;;;;;;;;5017648;28;20181;-78
2021/06/25 09:20:30;;;;;;;3.20;2.90;;;;;;;;;;5017599;28;20195;-77
2021/06/25 09:22:56;;;;;;;4.00;3.60;;;;;;;;;;5004070;28;20315;-77
2021/06/25 09:25:22;;;;;;;3.60;3.03;;;;;;;;;;5017482;28;20436;-77
2021/06/25 09:27:56;;;;;;;3.30;3.00;;;;;;;;;;4998207;28;20821;-77
2021/06/25 09:30:22;;;;;;;3.05;2.80;;;;;;;;;;5000867;28;20442;-77
2021/06/25 09:32:49;;;;;;;4.82;3.80;;;;;;;;;;5001905;28;20193;-77
2021/06/25 09:35:15;;;;;;;3.13;2.83;;;;;;;;;;5003481;28;20260;-77
2021/06/25 09:37:43;;;;;;;3.20;2.90;;;;;;;;;;5000341;28;20188;-77
2021/06/25 09:40:09;;;;;;;3.30;3.00;;;;;;;;;;5001204;28;20194;-77
2021/06/25 09:42:35;;;;;;;3.13;2.92;;;;;;;;;;5001222;28;20663;-79
2021/06/25 09:45:02;;;;;;;3.13;2.63;;;;;;;;;;5001505;28;20214;-78
2021/06/25 09:47:29;;;;;;;5.10;2.55;;;;;;;;;;5017408;28;20416;-79
2021/06/25 09:50:12;;;;;;;2.47;2.28;;;;;;;;;;5002872;28;20191;-79
2021/06/25 09:52:50;;;;;;;3.47;3.17;;;;;;;;;;5001679;28;20184;-78
2021/06/25 09:55:17;;;;;;;3.88;3.50;;;;;;;;;;5001730;28;20183;-80
2021/06/25 09:58:12;;;;;;;4.60;3.55;;;;;;;;;;5000321;28;20241;-79
2021/06/25 10:03:40;;;;;;;3.22;3.03;;;;;;;;;;4995101;28;20193;-78
2021/06/25 10:06:06;;;;;;;4.05;3.28;;;;;;;;;;5016303;28;20667;-79
2021/06/25 10:08:33;;;;;;;3.65;3.30;;;;;;;;;;4996042;28;20240;-79
2021/06/25 10:10:59;;;;;;;4.95;4.45;;;;;;;;;;5000306;28;20195;-79
2021/06/25 10:13:25;;;;;;;3.72;3.40;;;;;;;;;;5015819;28;20183;-79
2021/06/25 10:15:51;;;;;;;5.70;3.53;;;;;;;;;;5000969;28;20482;-78
2021/06/25 10:18:18;;;;;;;3.57;3.30;;;;;;;;;;5000704;28;20237;-79
2021/06/25 10:20:45;;;;;;;3.65;3.35;;;;;;;;;;5000736;28;20784;-79
2021/06/25 10:23:11;;;;;;;4.95;4.45;;;;;;;;;;5018273;28;20194;-80
2021/06/25 10:25:39;;;;;;;3.57;3.27;;;;;;;;;;5002575;28;20218;-79
2021/06/25 10:28:05;;;;;;;4.53;3.80;;;;;;;;;;5015979;28;20412;-79
2021/06/25 10:30:31;;;;;;;4.20;3.90;;;;;;;;;;4999752;28;20915;-78
2021/06/25 10:32:57;;;;;;;4.93;4.43;;;;;;;;;;5001319;28;20409;-77
2021/06/25 10:35:24;;;;;;;4.07;3.53;;;;;;;;;;5017394;28;20415;-79
2021/06/25 10:37:50;;;;;;;5.73;4.30;;;;;;;;;;4998139;28;20479;-79
2021/06/25 10:40:23;;;;;;;4.63;4.17;;;;;;;;;;5010071;28;20533;-79
2021/06/25 10:42:50;;;;;;;3.83;3.53;;;;;;;;;;5010244;28;20515;-79
2021/06/25 10:45:16;;;;;;;4.10;3.33;;;;;;;;;;4999462;28;20408;-78
2021/06/25 10:47:53;;;;;;;5.73;4.17;;;;;;;;;;5015683;28;20510;-79
2021/06/25 10:50:19;;;;;;;4.27;3.87;;;;;;;;;;5002859;28;20456;-79
2021/06/25 10:53:06;;;;;;;7.22;3.47;;;;;;;;;;5001991;28;20422;-79
2021/06/25 10:55:32;;;;;;;3.78;3.47;;;;;;;;;;5018700;28;20274;-79
2021/06/25 10:57:58;;;;;;;6.33;3.43;;;;;;;;;;4999105;28;20213;-79
2021/06/25 11:00:24;;;;;;;3.25;3.05;;;;;;;;;;5015696;28;20437;-79
2021/06/25 11:02:50;;;;;;;4.93;3.03;;;;;;;;;;5015917;28;20194;-79
2021/06/25 11:05:22;;;;;;;3.60;3.30;;;;;;;;;;5002361;28;20403;-79
2021/06/25 11:07:49;;;;;;;3.63;3.33;;;;;;;;;;5001050;28;20310;-80
2021/06/25 11:10:35;;;;;;;3.63;2.97;;;;;;;;;;5000736;28;20179;-78
2021/06/25 11:13:13;;;;;;;3.70;3.15;;;;;;;;;;5015658;28;20445;-79
2021/06/25 11:15:40;;;;;;;2.72;2.53;;;;;;;;;;5000614;28;20221;-78
2021/06/25 11:18:26;;;;;;;3.40;3.10;;;;;;;;;;5016321;28;20214;-78
2021/06/25 11:20:58;;;;;;;3.92;3.55;;;;;;;;;;4990845;28;20790;-77
2021/06/25 11:23:28;;;;;;;3.70;3.40;;;;;;;;;;5021175;28;20274;-80
2021/06/25 11:25:54;;;;;;;4.68;3.90;;;;;;;;;;5007559;28;20727;-78
2021/06/25 11:28:33;;;;;;;3.08;2.80;;;;;;;;;;5018997;28;20792;-79
2021/06/25 11:31:06;;;;;;;4.53;3.35;;;;;;;;;;5002996;28;20183;-78
2021/06/25 11:33:51;;;;;;;4.15;3.75;;;;;;;;;;5003961;28;20204;-78
2021/06/25 11:36:29;;;;;;;4.32;3.47;;;;;;;;;;5007556;28;20269;-80
2021/06/25 11:38:58;;;;;;;5.82;3.65;;;;;;;;;;5003919;28;20204;-79
2021/06/25 11:41:27;;;;;;;4.25;3.85;;;;;;;;;;5020970;28;20193;-78
2021/06/25 11:43:54;;;;;;;3.28;3.00;;;;;;;;;;5005092;28;20180;-78
2021/06/25 11:46:20;;;;;;;3.72;3.42;;;;;;;;;;5019044;28;20212;-78
2021/06/25 11:48:47;;;;;;;4.10;3.67;;;;;;;;;;5003442;28;20186;-78
2021/06/25 11:51:14;;;;;;;4.10;3.75;;;;;;;;;;5003589;28;20188;-79
2021/06/25 11:53:44;;;;;;;3.80;3.50;;;;;;;;;;5018900;28;20194;-77
2021/06/25 11:56:24;;;;;;;4.00;3.60;;;;;;;;;;5021753;28;20231;-79
2021/06/25 11:59:09;;;;;;;4.13;3.72;;;;;;;;;;5004459;28;20288;-78
2021/06/25 12:02:07;;;;;;;3.53;3.22;;;;;;;;;;5004708;28;20179;-78
2021/06/25 12:04:36;;;;;;;4.13;3.40;;;;;;;;;;5003235;28;20181;-78
2021/06/25 12:07:03;;;;;;;4.20;3.80;;;;;;;;;;5005824;28;20264;-78
2021/06/25 12:09:39;;;;;;;3.22;3.03;;;;;;;;;;5012018;28;20186;-78
2021/06/25 12:12:05;;;;;;;3.25;2.97;;;;;;;;;;5014354;28;20197;-77
2021/06/25 12:14:41;;;;;;;3.28;2.80;;;;;;;;;;5002981;28;20344;-78
2021/06/25 12:17:07;;;;;;;3.00;2.22;;;;;;;;;;5001017;28;20185;-78
2021/06/25 12:19:33;;;;;;;2.10;1.90;;;;;;;;;;4987017;28;20577;-78
2021/06/25 12:22:09;;;;;;;2.97;2.40;;;;;;;;;;5003735;28;20442;-78
2021/06/25 12:24:48;;;;;;;2.08;1.98;;;;;;;;;;5003384;28;20411;-78
2021/06/25 12:27:14;;;;;;;2.47;2.28;;;;;;;;;;4987020;28;20277;-78
2021/06/25 12:29:40;;;;;;;2.60;2.40;;;;;;;;;;4997215;28;20223;-77
2021/06/25 12:32:17;;;;;;;2.20;2.00;;;;;;;;;;5012949;28;20521;-79
2021/06/25 12:34:44;;;;;;;2.93;2.20;;;;;;;;;;5003357;28;20471;-78
2021/06/25 12:37:11;;;;;;;2.80;1.77;;;;;;;;;;5003002;28;20429;-80
2021/06/25 12:39:37;;;;;;;1.97;1.80;;;;;;;;;;5003252;28;20436;-79
2021/06/25 12:42:05;;;;;;;1.40;1.30;;;;;;;;;;5002977;28;20529;-79
2021/06/25 12:44:32;;;;;;;1.53;1.43;;;;;;;;;;5018602;28;20440;-79
2021/06/25 12:47:08;;;;;;;1.53;1.43;;;;;;;;;;5004460;28;20388;-79
2021/06/25 12:49:34;;;;;;;1.80;1.20;;;;;;;;;;5003376;28;20417;-78
2021/06/25 12:52:00;;;;;;;1.60;1.50;;;;;;;;;;5017546;28;20279;-78
2021/06/25 12:54:33;;;;;;;1.80;1.40;;;;;;;;;;5002436;28;20450;-78
2021/06/25 12:56:59;;;;;;;2.10;2.00;;;;;;;;;;5018190;28;20434;-79
2021/06/25 12:59:27;;;;;;;1.95;1.85;;;;;;;;;;5003347;28;20239;-78
2021/06/25 13:01:58;;;;;;;2.08;1.95;;;;;;;;;;5000355;28;20201;-76
2021/06/25 13:04:28;;;;;;;2.15;1.95;;;;;;;;;;5010976;28;20191;-77
2021/06/25 13:06:55;;;;;;;2.10;1.70;;;;;;;;;;5012560;28;20192;-78
2021/06/25 13:09:21;;;;;;;2.33;2.13;;;;;;;;;;5015918;28;20179;-77
2021/06/25 13:11:49;;;;;;;2.88;2.17;;;;;;;;;;4999209;28;20232;-75
2021/06/25 13:14:31;;;;;;;3.35;2.10;;;;;;;;;;5019601;28;20203;-75
2021/06/25 13:17:01;;;;;;;2.00;1.90;;;;;;;;;;5003820;28;20663;-76
2021/06/25 13:19:30;;;;;;;1.50;1.40;;;;;;;;;;5001632;28;20217;-76
2021/06/25 13:22:07;;;;;;;1.60;1.50;;;;;;;;;;5017242;28;20245;-76
2021/06/25 13:24:46;;;;;;;1.85;1.75;;;;;;;;;;5001072;28;20181;-76
2021/06/25 13:27:13;;;;;;;1.52;1.42;;;;;;;;;;5000740;28;20176;-76
2021/06/25 13:29:46;;;;;;;1.63;1.42;;;;;;;;;;5001725;28;20177;-76
2021/06/25 13:32:14;;;;;;;1.23;1.13;;;;;;;;;;5004236;28;20203;-76
2021/06/25 13:34:40;;;;;;;1.50;1.40;;;;;;;;;;5002080;28;20215;-76
2021/06/25 13:37:06;;;;;;;1.40;1.27;;;;;;;;;;5002149;28;20192;-76
2021/06/25 13:39:34;;;;;;;1.40;1.30;;;;;;;;;;5001664;28;20214;-76
2021/06/25 13:42:13;;;;;;;1.83;1.50;;;;;;;;;;5001431;28;20179;-76
2021/06/25 13:44:39;;;;;;;1.33;1.15;;;;;;;;;;5011905;28;20208;-76
2021/06/25 13:47:06;;;;;;;0.93;0.83;;;;;;;;;;5005467;28;20175;-76
2021/06/25 13:49:34;;;;;;;0.85;0.70;;;;;;;;;;5000588;28;20434;-75
2021/06/25 13:52:01;;;;;;;1.00;0.90;;;;;;;;;;5001586;28;20236;-75
2021/06/25 13:54:27;;;;;;;1.10;1.00;;;;;;;;;;5001516;28;20579;-75
2021/06/25 13:56:57;;;;;;;0.95;0.77;;;;;;;;;;5017548;28;20649;-77
2021/06/25 13:59:35;;;;;;;1.02;0.93;;;;;;;;;;5017498;28;20213;-76
2021/06/25 14:02:01;;;;;;;0.98;0.80;;;;;;;;;;5005616;28;20178;-76
2021/06/25 14:04:29;;;;;;;0.80;0.70;;;;;;;;;;5016252;28;20175;-75
2021/06/25 14:06:57;;;;;;;0.70;0.70;;;;;;;;;;5016291;28;20477;-77
2021/06/25 14:09:24;;;;;;;0.60;0.55;;;;;;;;;;5001007;28;20182;-76
2021/06/25 14:11:50;;;;;;;0.73;0.73;;;;;;;;;;5016349;28;20184;-76
2021/06/25 14:14:17;;;;;;;0.60;0.60;;;;;;;;;;5003404;28;20189;-76
2021/06/25 14:16:43;;;;;;;1.58;0.70;;;;;;;;;;5002366;28;20235;-76
2021/06/25 14:19:10;;;;;;;0.70;0.50;;;;;;;;;;5001022;28;20218;-76
2021/06/25 14:21:42;;;;;;;1.03;0.90;;;;;;;;;;4999424;28;20839;-77
2021/06/25 14:24:08;;;;;;;0.90;0.80;;;;;;;;;;5001606;28;20438;-77
2021/06/25 14:26:35;;;;;;;1.10;0.90;;;;;;;;;;4996400;28;20438;-76
2021/06/25 14:29:01;;;;;;;0.93;0.83;;;;;;;;;;5004360;28;20464;-76
2021/06/25 14:31:28;;;;;;;0.80;0.80;;;;;;;;;;5000644;28;20505;-76
2021/06/25 14:33:54;;;;;;;1.43;0.87;;;;;;;;;;5001326;28;20421;-76
2021/06/25 14:36:23;;;;;;;0.80;0.80;;;;;;;;;;5000572;28;21014;-76
2021/06/25 14:38:49;;;;;;;1.13;1.03;;;;;;;;;;5001318;28;20473;-77
2021/06/25 14:41:15;;;;;;;1.00;0.90;;;;;;;;;;5018025;28;20447;-77
2021/06/25 14:43:41;;;;;;;1.33;0.77;;;;;;;;;;5002093;28;20965;-77
2021/06/25 14:46:07;;;;;;;0.83;0.80;;;;;;;;;;4999804;28;20417;-76
2021/06/25 14:48:35;;;;;;;3.00;0.90;;;;;;;;;;5015512;28;20446;-77
2021/06/25 14:51:02;;;;;;;1.63;0.80;;;;;;;;;;5015399;28;20424;-77